createdAt,value
2024-02-14T00:01:51.681Z,4.70
2024-02-14T00:04:19.787Z,4.70
2024-02-14T00:06:46.877Z,4.80
2024-02-14T00:09:14.052Z,5.00
2024-02-14T00:11:42.158Z,5.10
2024-02-14T00:14:09.199Z,5.20
2024-02-14T00:16:37.322Z,5.20
2024-02-14T00:19:06.665Z,5.30
2024-02-14T00:21:35.118Z,5.20
2024-02-14T00:24:03.374Z,5.10
2024-02-14T00:26:30.486Z,5.10
2024-02-14T00:28:58.602Z,5.20
2024-02-14T00:31:25.602Z,5.30
2024-02-14T00:33:52.920Z,5.40
2024-02-14T00:36:20.969Z,5.40
2024-02-14T00:38:47.913Z,5.50
2024-02-14T00:41:14.872Z,5.60
2024-02-14T00:43:41.949Z,5.60
2024-02-14T00:46:09.161Z,5.50
2024-02-14T00:48:36.489Z,5.60
2024-02-14T00:51:04.073Z,5.70
2024-02-14T00:53:31.168Z,5.70
2024-02-14T00:56:00.182Z,5.80
2024-02-14T00:58:28.451Z,5.80
2024-02-14T01:00:55.521Z,5.80
2024-02-14T01:03:23.618Z,5.80
2024-02-14T01:05:51.731Z,5.90
2024-02-14T01:08:18.717Z,5.90
2024-02-14T01:10:47.873Z,5.90
2024-02-14T01:13:14.803Z,6.00
2024-02-14T01:15:42.798Z,6.20
2024-02-14T01:18:09.970Z,6.10
2024-02-14T01:20:38.322Z,6.20
2024-02-14T01:23:06.185Z,6.00
2024-02-14T01:25:34.072Z,5.90
2024-02-14T01:28:01.378Z,5.90
2024-02-14T01:30:28.295Z,5.70
2024-02-14T01:32:55.900Z,5.70
2024-02-14T01:35:23.827Z,5.80
2024-02-14T01:37:53.580Z,5.80
2024-02-14T01:40:20.596Z,5.70
2024-02-14T01:42:47.592Z,5.70
2024-02-14T01:45:14.769Z,5.60
2024-02-14T01:47:42.525Z,5.70
2024-02-14T01:50:12.852Z,5.70
2024-02-14T01:52:41.314Z,5.80
2024-02-14T01:55:09.570Z,5.90
2024-02-14T01:57:36.691Z,6.00
2024-02-14T02:00:09.513Z,6.00
2024-02-14T02:02:38.565Z,6.10
2024-02-14T02:05:06.065Z,6.00
2024-02-14T02:07:34.290Z,6.00
2024-02-14T02:10:01.553Z,5.90
2024-02-14T02:12:28.863Z,5.90
2024-02-14T02:14:56.158Z,5.80
2024-02-14T02:17:23.126Z,5.90
2024-02-14T02:19:51.141Z,5.80
2024-02-14T02:22:18.163Z,5.80
2024-02-14T02:24:46.572Z,5.70
2024-02-14T02:27:17.457Z,5.70
2024-02-14T02:29:45.053Z,5.70
2024-02-14T02:32:12.784Z,5.50
2024-02-14T02:34:40.384Z,5.30
2024-02-14T02:37:10.395Z,5.30
2024-02-14T02:39:38.771Z,5.30
2024-02-14T02:42:05.944Z,5.50
2024-02-14T02:44:33.268Z,5.40
2024-02-14T02:47:01.872Z,5.50
2024-02-14T02:49:30.566Z,5.40
2024-02-14T02:51:58.727Z,5.60
2024-02-14T02:54:25.760Z,5.60
2024-02-14T02:56:52.728Z,5.70
2024-02-14T02:59:20.342Z,5.70
2024-02-14T03:01:47.446Z,5.80
2024-02-14T03:04:16.071Z,5.90
2024-02-14T03:06:44.620Z,6.00
2024-02-14T03:09:11.571Z,5.90
2024-02-14T03:11:39.415Z,6.10
2024-02-14T03:14:06.781Z,6.00
2024-02-14T03:16:35.191Z,6.10
2024-02-14T03:19:06.275Z,6.10
2024-02-14T03:21:36.317Z,6.10
2024-02-14T03:24:06.445Z,6.00
2024-02-14T03:26:34.530Z,5.90
2024-02-14T03:29:07.372Z,6.00
2024-02-14T03:31:35.335Z,6.10
2024-02-14T03:34:02.480Z,6.10
2024-02-14T03:36:31.552Z,6.30
2024-02-14T03:38:58.841Z,6.20
2024-02-14T03:41:26.010Z,6.20
2024-02-14T03:43:54.095Z,6.20
2024-02-14T03:46:22.515Z,6.30
2024-02-14T03:48:49.658Z,6.20
2024-02-14T03:51:17.358Z,6.40
2024-02-14T03:53:44.314Z,6.30
2024-02-14T03:56:11.438Z,6.30
2024-02-14T03:58:38.482Z,6.30
2024-02-14T04:01:06.340Z,6.20
2024-02-14T04:03:33.352Z,6.30
2024-02-14T04:06:00.685Z,6.40
2024-02-14T04:08:28.035Z,6.40
2024-02-14T04:10:55.986Z,6.40
2024-02-14T04:13:23.502Z,6.50
2024-02-14T04:15:50.413Z,6.60
2024-02-14T04:18:19.611Z,6.50
2024-02-14T04:20:46.981Z,6.60
2024-02-14T04:23:14.155Z,6.70
2024-02-14T04:25:42.669Z,6.70
2024-02-14T04:28:13.021Z,6.70
2024-02-14T04:30:42.869Z,6.70
2024-02-14T04:33:14.097Z,6.60
2024-02-14T04:35:41.953Z,6.50
2024-02-14T04:38:10.139Z,6.50
2024-02-14T04:40:38.603Z,6.70
2024-02-14T04:43:06.554Z,6.80
2024-02-14T04:45:35.933Z,6.80
2024-02-14T04:48:04.666Z,6.80
2024-02-14T04:50:32.705Z,6.90
2024-02-14T04:52:59.759Z,6.90
2024-02-14T04:55:26.920Z,6.90
2024-02-14T04:57:53.858Z,7.00
2024-02-14T05:00:21.176Z,6.80
2024-02-14T05:02:48.181Z,6.90
2024-02-14T05:05:21.754Z,7.00
2024-02-14T05:07:48.784Z,6.90
2024-02-14T05:10:15.782Z,7.00
2024-02-14T05:12:42.869Z,7.10
2024-02-14T05:15:13.552Z,7.10
2024-02-14T05:17:45.421Z,7.20
2024-02-14T05:20:12.867Z,7.10
2024-02-14T05:22:40.126Z,7.20
2024-02-14T05:25:10.365Z,7.20
2024-02-14T05:27:38.155Z,7.20
2024-02-14T05:30:06.802Z,7.20
2024-02-14T05:32:34.871Z,7.10
2024-02-14T05:35:02.827Z,7.10
2024-02-14T05:37:30.609Z,7.20
2024-02-14T05:39:57.583Z,7.20
2024-02-14T05:42:24.587Z,7.20
2024-02-14T05:44:53.240Z,7.30
2024-02-14T05:47:20.482Z,7.20
2024-02-14T05:49:47.807Z,7.30
2024-02-14T05:52:16.927Z,7.40
2024-02-14T05:54:44.046Z,7.30
2024-02-14T05:57:12.108Z,7.30
2024-02-14T05:59:44.265Z,7.20
2024-02-14T06:02:15.397Z,7.20
2024-02-14T06:04:43.901Z,7.30
2024-02-14T06:07:13.340Z,7.40
2024-02-14T06:09:40.350Z,7.50
2024-02-14T06:12:08.193Z,7.40
2024-02-14T06:14:38.153Z,7.30
2024-02-14T06:17:05.306Z,7.30
2024-02-14T06:19:39.326Z,7.40
2024-02-14T06:22:08.844Z,7.40
2024-02-14T06:24:37.946Z,7.30
2024-02-14T06:27:05.625Z,7.20
2024-02-14T06:29:32.702Z,7.40
2024-02-14T06:31:59.847Z,7.50
2024-02-14T06:34:29.011Z,7.40
2024-02-14T06:36:56.305Z,7.40
2024-02-14T06:39:24.340Z,7.40
2024-02-14T06:41:51.454Z,7.40
2024-02-14T06:44:20.494Z,7.40
2024-02-14T06:46:47.412Z,7.30
2024-02-14T06:49:18.509Z,7.20
2024-02-14T06:51:46.319Z,7.30
2024-02-14T06:54:15.829Z,7.30
2024-02-14T06:56:42.756Z,7.30
2024-02-14T06:59:09.748Z,7.30
2024-02-14T07:01:36.875Z,7.30
2024-02-14T07:04:04.678Z,7.40
2024-02-14T07:06:32.152Z,7.40
2024-02-14T07:08:59.133Z,7.30
2024-02-14T07:11:26.081Z,7.50
2024-02-14T07:13:54.044Z,7.40
2024-02-14T07:16:23.114Z,7.40
2024-02-14T07:18:53.375Z,7.40
2024-02-14T07:21:21.440Z,7.50
2024-02-14T07:23:54.938Z,7.70
2024-02-14T07:26:22.090Z,7.60
2024-02-14T07:28:49.072Z,7.60
2024-02-14T07:31:16.053Z,7.60
2024-02-14T07:33:44.642Z,7.60
2024-02-14T07:36:12.318Z,7.60
2024-02-14T07:38:39.318Z,7.70
2024-02-14T07:41:06.505Z,7.70
2024-02-14T07:43:33.455Z,7.90
2024-02-14T07:46:00.609Z,8.00
2024-02-14T07:48:28.268Z,8.00
2024-02-14T07:50:57.095Z,8.10
2024-02-14T07:53:24.160Z,8.00
2024-02-14T07:55:53.829Z,8.10
2024-02-14T07:58:20.784Z,8.10
2024-02-14T08:00:47.797Z,8.10
2024-02-14T08:03:15.461Z,8.10
2024-02-14T08:05:43.852Z,8.20
2024-02-14T08:08:11.025Z,8.20
2024-02-14T08:10:38.006Z,8.20
2024-02-14T08:13:05.374Z,8.30
2024-02-14T08:15:33.472Z,8.30
2024-02-14T08:18:03.640Z,8.30
2024-02-14T08:20:33.423Z,8.50
2024-02-14T08:23:00.481Z,8.50
2024-02-14T08:25:27.913Z,8.40
2024-02-14T08:27:55.060Z,8.40
2024-02-14T08:30:22.167Z,8.50
2024-02-14T08:32:49.280Z,8.70
2024-02-14T08:35:16.547Z,8.80
2024-02-14T08:37:43.546Z,8.80
2024-02-14T08:40:13.312Z,8.90
2024-02-14T08:42:40.655Z,8.90
2024-02-14T08:45:08.533Z,8.80
2024-02-14T08:47:35.646Z,8.90
2024-02-14T08:50:04.472Z,8.90
2024-02-14T08:52:31.504Z,9.10
2024-02-14T08:54:58.422Z,9.10
2024-02-14T08:57:25.396Z,9.00
2024-02-14T08:59:52.444Z,9.20
2024-02-14T09:02:20.122Z,9.30
2024-02-14T09:04:48.214Z,9.50
2024-02-14T09:07:17.100Z,9.40
2024-02-14T09:09:44.132Z,9.40
2024-02-14T09:12:11.376Z,9.50
2024-02-14T09:14:38.510Z,9.50
2024-02-14T09:17:05.613Z,9.70
2024-02-14T09:19:32.726Z,9.70
2024-02-14T09:22:00.064Z,9.90
2024-02-14T09:24:27.244Z,9.90
2024-02-14T09:26:55.302Z,10.10
2024-02-14T09:29:22.292Z,10.40
2024-02-14T09:31:52.619Z,10.40
2024-02-14T09:34:21.792Z,10.30
2024-02-14T09:36:53.287Z,10.40
2024-02-14T09:39:20.490Z,10.20
2024-02-14T09:41:55.585Z,10.20
2024-02-14T09:44:23.006Z,10.30
2024-02-14T09:46:50.615Z,10.40
2024-02-14T09:49:18.968Z,10.50
2024-02-14T09:51:48.144Z,10.50
2024-02-14T09:54:15.280Z,10.40
2024-02-14T09:56:42.365Z,10.40
2024-02-14T09:59:11.158Z,10.50
2024-02-14T10:01:38.912Z,10.50
2024-02-14T10:04:06.221Z,10.40
2024-02-14T10:06:35.194Z,10.30
2024-02-14T10:09:04.115Z,10.30
2024-02-14T10:11:33.845Z,10.20
2024-02-14T10:14:05.762Z,10.10
2024-02-14T10:16:33.239Z,10.10
2024-02-14T10:19:01.812Z,10.10
2024-02-14T10:21:30.287Z,10.30
2024-02-14T10:24:03.675Z,10.30
2024-02-14T10:26:31.711Z,10.40
2024-02-14T10:28:59.184Z,10.50
2024-02-14T10:31:29.253Z,10.40
2024-02-14T10:33:57.762Z,10.30
2024-02-14T10:36:25.408Z,10.30
2024-02-14T10:38:53.000Z,10.30
2024-02-14T10:41:20.149Z,10.30
2024-02-14T10:43:47.231Z,10.20
2024-02-14T10:46:27.249Z,10.30
2024-02-14T10:49:00.150Z,10.50
2024-02-14T10:51:32.318Z,10.60
2024-02-14T10:54:04.305Z,10.70
2024-02-14T10:56:33.809Z,10.70
2024-02-14T10:59:03.492Z,10.70
2024-02-14T11:01:33.820Z,10.80
2024-02-14T11:04:02.393Z,11.00
2024-02-14T11:06:32.195Z,11.30
2024-02-14T11:09:15.222Z,11.30
2024-02-14T11:11:48.062Z,11.30
2024-02-14T11:14:21.340Z,11.40
2024-02-14T11:16:48.407Z,11.40
2024-02-14T11:19:18.674Z,11.50
2024-02-14T11:21:49.968Z,11.50
2024-02-14T11:24:17.853Z,11.50
2024-02-14T11:26:50.547Z,11.40
2024-02-14T11:29:22.333Z,11.30
2024-02-14T11:32:03.546Z,11.30
2024-02-14T11:34:37.762Z,11.40
2024-02-14T11:37:08.555Z,11.40
2024-02-14T11:39:35.931Z,11.60
2024-02-14T11:42:03.121Z,11.60
2024-02-14T11:44:30.311Z,11.60
2024-02-14T11:46:57.752Z,11.60
2024-02-14T11:49:24.942Z,11.70
2024-02-14T11:51:52.242Z,11.80
2024-02-14T11:54:21.615Z,11.70
2024-02-14T11:56:49.235Z,11.60
2024-02-14T11:59:18.390Z,11.60
2024-02-14T12:01:47.496Z,11.50
2024-02-14T12:04:14.599Z,11.50
2024-02-14T12:06:43.173Z,11.60
2024-02-14T12:09:11.154Z,11.80
2024-02-14T12:11:39.420Z,11.90
2024-02-14T12:14:11.029Z,12.00
2024-02-14T12:16:41.453Z,11.90
2024-02-14T12:19:11.601Z,12.00
2024-02-14T12:21:40.938Z,12.10
2024-02-14T12:24:09.823Z,12.20
2024-02-14T12:26:40.164Z,12.30
2024-02-14T12:29:09.748Z,12.50
2024-02-14T12:31:37.565Z,12.60
2024-02-14T12:34:06.585Z,12.60
2024-02-14T12:36:35.510Z,12.50
2024-02-14T12:39:04.300Z,12.50
2024-02-14T12:41:32.741Z,12.40
2024-02-14T12:44:01.286Z,12.30
2024-02-14T12:46:29.059Z,12.30
2024-02-14T12:48:56.336Z,12.20
2024-02-14T12:51:23.438Z,12.30
2024-02-14T12:53:50.523Z,12.30
2024-02-14T12:56:17.798Z,12.30
2024-02-14T12:58:48.149Z,12.20
2024-02-14T13:01:16.018Z,12.40
2024-02-14T13:03:43.141Z,12.50
2024-02-14T13:06:10.395Z,12.50
2024-02-14T13:08:39.911Z,12.50
2024-02-14T13:11:09.857Z,12.40
2024-02-14T13:13:37.671Z,12.50
2024-02-14T13:16:07.473Z,12.40
2024-02-14T13:18:36.236Z,12.40
2024-02-14T13:21:04.171Z,12.40
2024-02-14T13:23:31.875Z,12.30
2024-02-14T13:25:59.718Z,12.30
2024-02-14T13:28:26.923Z,12.30
2024-02-14T13:30:56.753Z,12.30
2024-02-14T13:33:24.314Z,12.30
2024-02-14T13:35:52.126Z,12.30
2024-02-14T13:38:19.368Z,12.40
2024-02-14T13:40:46.339Z,12.50
2024-02-14T13:43:16.692Z,12.60
2024-02-14T13:45:47.680Z,12.70
2024-02-14T13:48:15.269Z,12.70
2024-02-14T13:50:44.536Z,12.60
2024-02-14T13:53:11.663Z,12.50
2024-02-14T13:55:41.288Z,12.40
2024-02-14T13:58:15.151Z,12.40
2024-02-14T14:00:42.676Z,12.40
2024-02-14T14:03:09.701Z,12.40
2024-02-14T14:05:36.848Z,12.40
2024-02-14T14:08:04.575Z,12.30
2024-02-14T14:10:31.656Z,12.30
2024-02-14T14:12:58.706Z,12.30
2024-02-14T14:15:28.024Z,12.20
2024-02-14T14:17:55.197Z,12.30
2024-02-14T14:20:22.483Z,12.30
2024-02-14T14:22:49.676Z,12.30
2024-02-14T14:25:16.914Z,12.30
2024-02-14T14:27:44.550Z,12.20
2024-02-14T14:30:13.337Z,12.30
2024-02-14T14:32:41.553Z,12.20
2024-02-14T14:35:11.565Z,12.20
2024-02-14T14:37:39.214Z,12.30
2024-02-14T14:40:09.316Z,12.30
2024-02-14T14:42:36.518Z,12.30
2024-02-14T14:45:04.945Z,12.40
2024-02-14T14:47:33.218Z,12.40
2024-02-14T14:50:00.584Z,12.40
2024-02-14T14:52:27.808Z,12.40
2024-02-14T14:54:55.050Z,12.30
2024-02-14T14:57:22.509Z,12.40
2024-02-14T14:59:49.611Z,12.50
2024-02-14T15:02:16.591Z,12.50
2024-02-14T15:04:45.436Z,12.50
2024-02-14T15:07:13.128Z,12.50
2024-02-14T15:09:40.433Z,12.50
2024-02-14T15:12:08.799Z,12.50
2024-02-14T15:14:35.765Z,12.50
2024-02-14T15:17:02.772Z,12.40
2024-02-14T15:19:29.789Z,12.30
2024-02-14T15:21:57.127Z,12.40
2024-02-14T15:24:24.457Z,12.50
2024-02-14T15:26:54.344Z,12.50
2024-02-14T15:29:39.719Z,12.40
2024-02-14T15:32:25.954Z,12.40
2024-02-14T15:34:53.058Z,12.40
2024-02-14T15:37:20.257Z,12.40
2024-02-14T15:39:47.335Z,12.50
2024-02-14T15:42:14.429Z,12.40
2024-02-14T15:44:42.457Z,12.30
2024-02-14T15:47:10.677Z,12.40
2024-02-14T15:49:37.798Z,12.30
2024-02-14T15:52:05.979Z,12.30
2024-02-14T15:54:33.029Z,12.40
2024-02-14T15:57:01.782Z,12.30
2024-02-14T15:59:29.099Z,12.30
2024-02-14T16:01:56.832Z,12.30
2024-02-14T16:04:26.179Z,12.30
2024-02-14T16:06:54.240Z,12.30
2024-02-14T16:09:21.859Z,12.20
2024-02-14T16:11:48.942Z,12.30
2024-02-14T16:14:18.027Z,12.20
2024-02-14T16:16:45.000Z,12.30
2024-02-14T16:19:12.619Z,12.30
2024-02-14T16:31:45.922Z,12.60
2024-02-14T16:39:42.699Z,12.60
2024-02-14T16:42:11.939Z,12.60
2024-02-14T16:44:40.300Z,12.60
2024-02-14T16:51:18.182Z,12.60
2024-02-14T16:54:05.364Z,12.60
2024-02-14T16:56:48.631Z,12.60
2024-02-14T16:59:37.149Z,12.60
2024-02-14T17:03:11.422Z,12.60
2024-02-14T17:05:43.840Z,12.60
2024-02-14T17:08:52.426Z,12.60
2024-02-14T17:11:26.676Z,12.60
2024-02-14T17:14:29.880Z,12.70
2024-02-14T17:16:59.018Z,12.60
2024-02-14T17:19:27.406Z,12.60
2024-02-14T17:21:54.861Z,12.70
2024-02-14T17:24:24.478Z,12.70
2024-02-14T17:26:51.533Z,12.70
2024-02-14T17:29:19.452Z,12.70
2024-02-14T17:31:49.811Z,12.70
2024-02-14T17:34:17.027Z,12.70
2024-02-14T17:36:47.319Z,12.70
2024-02-14T17:39:15.516Z,12.70
2024-02-14T17:41:42.721Z,12.70
2024-02-14T17:44:11.011Z,12.70
2024-02-14T17:46:39.005Z,12.70
2024-02-14T17:49:10.825Z,12.70
2024-02-14T17:51:37.840Z,12.80
2024-02-14T17:54:07.650Z,12.80
2024-02-14T17:56:35.142Z,12.70
2024-02-14T17:59:02.705Z,12.70
2024-02-14T18:01:29.655Z,12.70
2024-02-14T18:03:59.837Z,12.70
2024-02-14T18:06:26.896Z,12.70
2024-02-14T18:08:54.149Z,12.70
2024-02-14T18:11:23.231Z,12.80
2024-02-14T18:13:53.701Z,12.70
2024-02-14T18:16:21.594Z,12.70
2024-02-14T18:18:49.334Z,12.70
2024-02-14T18:21:16.644Z,12.80
2024-02-14T18:23:43.850Z,12.70
2024-02-14T18:26:11.332Z,12.80
2024-02-14T18:28:38.355Z,12.80
2024-02-14T18:31:06.612Z,12.60
2024-02-14T18:33:34.757Z,12.50
2024-02-14T18:36:04.927Z,12.70
2024-02-14T18:38:32.843Z,12.70
2024-02-14T18:41:00.934Z,12.60
2024-02-14T18:43:32.676Z,12.70
2024-02-14T18:45:59.916Z,12.80
2024-02-14T18:48:27.212Z,12.70
2024-02-14T18:50:54.661Z,12.70
2024-02-14T18:53:22.080Z,12.80
2024-02-14T18:55:49.296Z,12.70
2024-02-14T18:58:20.763Z,12.60
2024-02-14T19:00:47.960Z,12.60
2024-02-14T19:03:19.055Z,12.70
2024-02-14T19:05:46.271Z,12.60
2024-02-14T19:08:14.408Z,12.60
2024-02-14T19:10:41.593Z,12.60
2024-02-14T19:13:09.689Z,12.60
2024-02-14T19:15:38.800Z,12.40
2024-02-14T19:18:06.181Z,12.40
2024-02-14T19:20:33.479Z,12.40
2024-02-14T19:23:02.881Z,12.30
2024-02-14T19:25:29.792Z,12.30
2024-02-14T19:27:56.785Z,12.40
2024-02-14T19:30:24.817Z,12.50
2024-02-14T19:32:52.092Z,12.40
2024-02-14T19:35:19.155Z,12.30
2024-02-14T19:37:46.069Z,12.30
2024-02-14T19:40:13.470Z,12.40
2024-02-14T19:42:40.511Z,12.30
2024-02-14T19:45:09.853Z,12.40
2024-02-14T19:47:38.632Z,12.30
2024-02-14T19:50:09.089Z,12.40
2024-02-14T19:52:36.707Z,12.40
2024-02-14T19:55:06.230Z,12.30
2024-02-14T19:57:35.716Z,12.40
2024-02-14T20:00:06.356Z,12.30
2024-02-14T20:02:34.212Z,12.30
2024-02-14T20:05:01.196Z,12.30
2024-02-14T20:07:28.510Z,12.20
2024-02-14T20:09:55.537Z,12.30
2024-02-14T20:12:22.579Z,12.20
2024-02-14T20:14:49.548Z,12.30
2024-02-14T20:17:16.787Z,12.30
2024-02-14T20:19:44.090Z,12.20
2024-02-14T20:22:13.062Z,12.30
2024-02-14T20:24:43.499Z,12.40
2024-02-14T20:27:10.895Z,12.30
2024-02-14T20:29:38.069Z,12.30
2024-02-14T20:32:05.325Z,12.30
2024-02-14T20:34:33.704Z,12.20
2024-02-14T20:37:00.732Z,12.30
2024-02-14T20:39:27.721Z,12.30
2024-02-14T20:41:54.773Z,12.30
2024-02-14T20:44:21.879Z,12.30
2024-02-14T20:46:52.225Z,12.30
2024-02-14T20:49:21.568Z,12.30
2024-02-14T20:51:48.889Z,12.20
2024-02-14T20:54:15.938Z,12.40
2024-02-14T20:56:43.066Z,12.20
2024-02-14T20:59:15.906Z,12.30
2024-02-14T21:01:43.923Z,12.30
2024-02-14T21:04:10.922Z,12.30
2024-02-14T21:06:39.417Z,12.20
2024-02-14T21:09:06.577Z,12.30
2024-02-14T21:11:34.715Z,12.30
2024-02-14T21:14:01.880Z,12.20
2024-02-14T21:16:29.867Z,12.10
2024-02-14T21:18:57.962Z,12.30
2024-02-14T21:21:25.986Z,12.20
2024-02-14T21:23:53.975Z,12.20
2024-02-14T21:26:21.142Z,12.20
2024-02-14T21:28:48.215Z,12.20
2024-02-14T21:31:16.253Z,12.10
2024-02-14T21:33:45.209Z,12.20
2024-02-14T21:36:12.319Z,12.20
2024-02-14T21:38:39.356Z,12.20
2024-02-14T21:41:07.189Z,12.20
2024-02-14T21:43:35.508Z,12.20
2024-02-14T21:46:03.452Z,12.20
2024-02-14T21:48:32.169Z,12.20
2024-02-14T21:51:04.867Z,12.30
2024-02-14T21:53:32.477Z,12.30
2024-02-14T21:55:59.508Z,12.20
2024-02-14T21:58:26.566Z,12.20
2024-02-14T22:00:54.842Z,12.20
2024-02-14T22:03:22.939Z,12.10
2024-02-14T22:05:50.000Z,12.10
2024-02-14T22:08:17.625Z,12.10
2024-02-14T22:10:44.687Z,12.10
2024-02-14T22:13:11.702Z,12.20
2024-02-14T22:15:38.871Z,12.30
2024-02-14T22:18:07.927Z,12.30
2024-02-14T22:20:36.074Z,12.20
2024-02-14T22:23:03.789Z,12.20
2024-02-14T22:25:31.095Z,12.20
2024-02-14T22:27:58.336Z,12.20
2024-02-14T22:30:25.832Z,12.20
2024-02-14T22:32:52.971Z,12.20
2024-02-14T22:35:20.062Z,12.20
2024-02-14T22:37:47.018Z,12.20
2024-02-14T22:40:17.838Z,12.20
2024-02-14T22:42:45.851Z,12.00
2024-02-14T22:45:15.960Z,12.00
2024-02-14T22:47:43.206Z,12.10
2024-02-14T22:50:10.827Z,12.10
2024-02-14T22:52:37.860Z,12.10
2024-02-14T22:55:10.791Z,12.10
2024-02-14T22:57:37.763Z,12.00
2024-02-14T23:00:08.445Z,11.90
2024-02-14T23:02:38.950Z,11.80
2024-02-14T23:05:06.531Z,11.80
2024-02-14T23:07:36.988Z,11.80
2024-02-14T23:10:06.260Z,11.70
2024-02-14T23:12:34.281Z,11.60
2024-02-14T23:15:01.311Z,11.60
2024-02-14T23:17:28.374Z,11.60
2024-02-14T23:19:56.155Z,11.60
2024-02-14T23:22:24.418Z,11.50
2024-02-14T23:24:51.487Z,11.50
2024-02-14T23:27:18.765Z,11.60
2024-02-14T23:29:45.714Z,11.50
2024-02-14T23:32:13.266Z,11.50
2024-02-14T23:34:41.159Z,11.50
2024-02-14T23:37:08.266Z,11.40
2024-02-14T23:39:39.437Z,11.60
2024-02-14T23:42:07.165Z,11.60
2024-02-14T23:44:36.059Z,11.50
2024-02-14T23:47:04.671Z,11.30
2024-02-14T23:49:31.715Z,11.20
2024-02-14T23:51:58.927Z,11.10
2024-02-14T23:54:25.984Z,11.00
2024-02-14T23:56:53.555Z,11.00
2024-02-14T23:59:20.823Z,11.00
